createdAt,value
2017-11-18T00:00:20.340Z,22.94
2017-11-18T00:00:52.340Z,23.06
2017-11-18T00:01:24.343Z,23.06
2017-11-18T00:01:56.361Z,22.94
2017-11-18T00:02:29.062Z,23.03
2017-11-18T00:03:01.116Z,23.06
2017-11-18T00:03:33.143Z,23.09
2017-11-18T00:04:05.179Z,23.06
2017-11-18T00:04:37.230Z,23.04
2017-11-18T00:05:09.822Z,23.06
2017-11-18T00:05:41.862Z,23.01
2017-11-18T00:06:13.903Z,23.06
2017-11-18T00:06:45.927Z,23.04
2017-11-18T00:07:17.911Z,23.04
2017-11-18T00:07:49.953Z,23.07
2017-11-18T00:08:22.106Z,23.07
2017-11-18T00:08:54.133Z,23.06
2017-11-18T00:09:26.153Z,23.04
2017-11-18T00:09:58.167Z,23.03
2017-11-18T00:10:30.212Z,23.06
2017-11-18T00:11:02.261Z,23.07
2017-11-18T00:11:34.262Z,23.03
2017-11-18T00:12:06.336Z,23
2017-11-18T00:12:38.358Z,23.07
2017-11-18T00:13:10.383Z,23.04
2017-11-18T00:13:42.391Z,22.96
2017-11-18T00:14:14.424Z,23.03
2017-11-18T00:14:46.442Z,23.1
2017-11-18T00:15:19.161Z,23.04
2017-11-18T00:15:51.162Z,23.04
2017-11-18T00:16:23.321Z,23.01
2017-11-18T00:16:55.344Z,22.99
2017-11-18T00:17:27.390Z,23
2017-11-18T00:17:59.387Z,23.04
2017-11-18T00:18:31.384Z,23.06
2017-11-18T00:19:03.424Z,23.01
2017-11-18T00:19:35.456Z,23.03
2017-11-18T00:20:07.461Z,23.06
2017-11-18T00:20:39.487Z,23.06
2017-11-18T00:21:11.517Z,23.07
2017-11-18T00:21:43.544Z,23.03
2017-11-18T00:22:16.231Z,23.01
2017-11-18T00:22:48.255Z,23.07
2017-11-18T00:23:20.334Z,23.01
2017-11-18T00:23:52.361Z,23.07
2017-11-18T00:24:24.367Z,23.06
2017-11-18T00:24:56.396Z,23
2017-11-18T00:25:28.438Z,23.01
2017-11-18T00:26:00.454Z,23.03
2017-11-18T00:26:32.485Z,23.06
2017-11-18T00:27:04.503Z,23.06
2017-11-18T00:27:36.545Z,23.01
2017-11-18T00:28:08.544Z,23.03
2017-11-18T00:28:40.582Z,23.01
2017-11-18T00:29:12.620Z,23.09
2017-11-18T00:29:44.627Z,23.01
2017-11-18T00:30:16.667Z,23.06
2017-11-18T00:30:49.488Z,22.97
2017-11-18T00:31:21.496Z,22.99
2017-11-18T00:31:53.546Z,22.99
2017-11-18T00:32:25.569Z,23.04
2017-11-18T00:32:57.594Z,23.06
2017-11-18T00:33:29.598Z,23.01
2017-11-18T00:34:01.622Z,23.07
2017-11-18T00:34:33.662Z,23.06
2017-11-18T00:35:05.694Z,23
2017-11-18T00:35:37.723Z,23.01
2017-11-18T00:36:09.746Z,23.07
2017-11-18T00:36:41.756Z,23.09
2017-11-18T00:37:14.272Z,23.06
2017-11-18T00:37:46.417Z,23.06
2017-11-18T00:38:18.413Z,23.04
2017-11-18T00:38:50.458Z,23.1
2017-11-18T00:39:22.434Z,23.01
2017-11-18T00:39:54.464Z,23.07
2017-11-18T00:40:26.510Z,23.06
2017-11-18T00:40:58.563Z,23.03
2017-11-18T00:41:30.529Z,23.09
2017-11-18T00:42:02.544Z,23.01
2017-11-18T00:42:34.591Z,23.06
2017-11-18T00:43:06.682Z,23.03
2017-11-18T00:43:38.662Z,23.01
2017-11-18T00:44:10.700Z,23.04
2017-11-18T00:44:42.749Z,23.07
2017-11-18T00:45:14.973Z,23.06
2017-11-18T00:45:46.970Z,23.04
2017-11-18T00:46:18.988Z,23.06
2017-11-18T00:46:51.028Z,23.06
2017-11-18T00:47:23.026Z,23.07
2017-11-18T00:47:55.039Z,23.04
2017-11-18T00:48:27.064Z,23.12
2017-11-18T00:48:59.179Z,23.06
2017-11-18T00:49:31.124Z,23.09
2017-11-18T00:50:03.162Z,23.06
2017-11-18T00:50:35.185Z,23
2017-11-18T00:51:07.199Z,23.06
2017-11-18T00:51:39.234Z,23.01
2017-11-18T00:52:11.298Z,23.06
2017-11-18T00:52:43.334Z,23.06
2017-11-18T00:53:15.353Z,23.07
2017-11-18T00:53:47.362Z,23.01
2017-11-18T00:54:19.388Z,23.01
2017-11-18T00:54:51.406Z,23.06
2017-11-18T00:55:23.408Z,23.03
2017-11-18T00:55:55.474Z,23.1
2017-11-18T00:56:27.615Z,23.1
2017-11-18T00:56:59.603Z,23.04
2017-11-18T00:57:32.351Z,23.06
2017-11-18T00:58:04.376Z,23.01
2017-11-18T00:58:36.394Z,23.01
2017-11-18T00:59:08.446Z,23.04
2017-11-18T00:59:40.463Z,23.06
2017-11-18T01:00:12.462Z,23.04
2017-11-18T01:00:45.178Z,23.01
2017-11-18T01:01:17.163Z,23.12
2017-11-18T01:01:49.244Z,23.06
2017-11-18T01:02:21.266Z,23
2017-11-18T01:02:53.288Z,23
2017-11-18T01:03:25.330Z,23.04
2017-11-18T01:03:57.335Z,23.04
2017-11-18T01:04:29.347Z,22.99
2017-11-18T01:05:01.425Z,23.09
2017-11-18T01:05:33.492Z,23.04
2017-11-18T01:06:06.324Z,23.03
2017-11-18T01:06:39.217Z,23.09
2017-11-18T01:07:11.251Z,23.04
2017-11-18T01:07:43.356Z,23.06
2017-11-18T01:08:15.352Z,23.03
2017-11-18T01:08:47.374Z,22.94
2017-11-18T01:09:19.387Z,23.09
2017-11-18T01:09:51.405Z,23.01
2017-11-18T01:10:23.478Z,23
2017-11-18T01:10:55.455Z,23.09
2017-11-18T01:11:27.487Z,23
2017-11-18T01:11:59.533Z,23.06
2017-11-18T01:12:31.531Z,23.01
2017-11-18T01:13:03.566Z,23.01
2017-11-18T01:13:35.593Z,23.04
2017-11-18T01:14:07.605Z,23.01
2017-11-18T01:14:39.621Z,23.03
2017-11-18T01:15:11.642Z,23
2017-11-18T01:15:43.683Z,23.07
2017-11-18T01:16:15.671Z,23.06
2017-11-18T01:16:47.700Z,23.07
2017-11-18T01:17:19.740Z,23.04
2017-11-18T01:17:51.801Z,23.03
2017-11-18T01:18:23.860Z,23.01
2017-11-18T01:18:55.865Z,22.91
2017-11-18T01:19:27.854Z,23.07
2017-11-18T01:19:59.881Z,23.01
2017-11-18T01:20:31.950Z,23.03
2017-11-18T01:21:03.993Z,23.06
2017-11-18T01:21:35.992Z,23.07
2017-11-18T01:22:08.017Z,23.06
2017-11-18T01:22:40.030Z,23.04
2017-11-18T01:23:12.047Z,23.12
2017-11-18T01:23:44.098Z,23.06
2017-11-18T01:24:16.137Z,23.01
2017-11-18T01:24:48.168Z,23.09
2017-11-18T01:25:20.189Z,23.03
2017-11-18T01:25:52.252Z,22.99
2017-11-18T01:26:24.272Z,23.06
2017-11-18T01:26:56.294Z,23.07
2017-11-18T01:27:28.282Z,23.04
2017-11-18T01:28:00.332Z,23.06
2017-11-18T01:28:32.328Z,23.03
2017-11-18T01:29:04.398Z,23.01
2017-11-18T01:29:36.421Z,23.03
2017-11-18T01:30:08.414Z,23.03
2017-11-18T01:30:40.474Z,23.06
2017-11-18T01:31:12.533Z,23.06
2017-11-18T01:31:44.533Z,23.07
2017-11-18T01:32:16.597Z,23.06
2017-11-18T01:32:48.611Z,23.04
2017-11-18T01:33:20.610Z,23.03
2017-11-18T01:33:56.413Z,22.99
2017-11-18T01:34:32.371Z,23.04
2017-11-18T01:35:04.432Z,23.03
2017-11-18T01:35:36.463Z,23.06
2017-11-18T01:36:08.470Z,23.04
2017-11-18T01:36:40.499Z,23.1
2017-11-18T01:37:12.508Z,23.1
2017-11-18T01:37:44.562Z,23.09
2017-11-18T01:38:16.593Z,23.1
2017-11-18T01:38:48.619Z,23.01
2017-11-18T01:39:20.658Z,23.14
2017-11-18T01:39:52.681Z,23.01
2017-11-18T01:40:24.701Z,23.1
2017-11-18T01:40:56.727Z,23.07
2017-11-18T01:41:28.737Z,23.04
2017-11-18T01:42:00.776Z,23.04
2017-11-18T01:42:32.900Z,22.99
2017-11-18T01:43:04.894Z,23.04
2017-11-18T01:43:36.941Z,23.04
2017-11-18T01:44:08.950Z,23.04
2017-11-18T01:44:41.003Z,23.06
2017-11-18T01:45:13.013Z,23.16
2017-11-18T01:45:45.044Z,22.99
2017-11-18T01:46:17.150Z,23.04
2017-11-18T01:46:49.240Z,23.12
2017-11-18T01:47:21.257Z,23.03
2017-11-18T01:47:53.284Z,23.12
2017-11-18T01:48:25.449Z,22.97
2017-11-18T01:48:57.457Z,23.12
2017-11-18T01:49:29.480Z,23.04
2017-11-18T01:50:01.490Z,23.07
2017-11-18T01:50:33.519Z,23.12
2017-11-18T01:51:06.298Z,23.09
2017-11-18T01:51:38.323Z,23.07
2017-11-18T01:52:10.357Z,23.01
2017-11-18T01:52:42.473Z,23.04
2017-11-18T01:53:14.512Z,23.06
2017-11-18T01:53:46.520Z,23.12
2017-11-18T01:54:18.522Z,23.07
2017-11-18T01:54:50.552Z,23.06
2017-11-18T01:55:22.567Z,23.06
2017-11-18T01:55:54.644Z,23.06
2017-11-18T01:56:26.694Z,23.06
2017-11-18T01:56:58.731Z,23.09
2017-11-18T01:57:30.760Z,23.04
2017-11-18T01:58:02.800Z,23.06
2017-11-18T01:58:34.800Z,23
2017-11-18T01:59:06.808Z,23.15
2017-11-18T01:59:38.829Z,23.04
2017-11-18T02:00:10.872Z,23.14
2017-11-18T02:00:42.902Z,23.07
2017-11-18T02:01:14.989Z,23.18
2017-11-18T02:01:47.005Z,23.09
2017-11-18T02:02:19.046Z,23.07
2017-11-18T02:02:51.073Z,23.14
2017-11-18T02:03:23.154Z,23.09
2017-11-18T02:03:55.161Z,23.04
2017-11-18T02:04:27.201Z,23.1
2017-11-18T02:04:59.339Z,23.14
2017-11-18T02:05:31.352Z,23.06
2017-11-18T02:06:03.392Z,23.1
2017-11-18T02:06:35.391Z,23.07
2017-11-18T02:07:07.413Z,23.07
2017-11-18T02:07:39.456Z,23.04
2017-11-18T02:08:11.480Z,23.04
2017-11-18T02:08:43.467Z,23.12
2017-11-18T02:09:15.482Z,23.1
2017-11-18T02:09:47.525Z,23.04
2017-11-18T02:10:19.520Z,23.07
2017-11-18T02:10:51.575Z,23.07
2017-11-18T02:11:23.620Z,23.1
2017-11-18T02:11:56.391Z,23.06
2017-11-18T02:12:28.487Z,23.07
2017-11-18T02:13:00.495Z,23.12
2017-11-18T02:13:32.518Z,23.1
2017-11-18T02:14:04.527Z,23.09
2017-11-18T02:14:36.693Z,23.14
2017-11-18T02:15:08.758Z,23.1
2017-11-18T02:15:40.828Z,23.1
2017-11-18T02:16:12.809Z,23.12
2017-11-18T02:16:44.851Z,23.04
2017-11-18T02:17:16.871Z,23.09
2017-11-18T02:17:48.873Z,23.06
2017-11-18T02:18:20.966Z,23.12
2017-11-18T02:18:52.982Z,23.12
2017-11-18T02:19:25.016Z,23.1
2017-11-18T02:19:57.021Z,23.14
2017-11-18T02:20:29.124Z,23.15
2017-11-18T02:21:01.139Z,23.16
2017-11-18T02:21:33.205Z,23.07
2017-11-18T02:22:05.214Z,23.09
2017-11-18T02:22:37.255Z,23.09
2017-11-18T02:23:09.286Z,23.12
2017-11-18T02:23:41.344Z,23.14
2017-11-18T02:24:13.375Z,23.19
2017-11-18T02:24:45.375Z,23.07
2017-11-18T02:25:17.421Z,23.09
2017-11-18T02:25:49.441Z,23.15
2017-11-18T02:26:21.475Z,23.04
2017-11-18T02:26:53.506Z,23.04
2017-11-18T02:27:25.550Z,23.09
2017-11-18T02:27:57.576Z,23.09
2017-11-18T02:28:29.600Z,23.14
2017-11-18T02:29:01.635Z,23.09
2017-11-18T02:29:33.666Z,23.14
2017-11-18T02:30:05.689Z,23.09
2017-11-18T02:30:37.728Z,23.26
2017-11-18T02:31:09.772Z,23.07
2017-11-18T02:31:41.830Z,23.16
2017-11-18T02:32:13.858Z,23.09
2017-11-18T02:32:45.896Z,23.14
2017-11-18T02:33:17.893Z,23.12
2017-11-18T02:33:49.921Z,23.14
2017-11-18T02:34:21.965Z,23.12
2017-11-18T02:34:54.007Z,23.1
2017-11-18T02:35:26.020Z,23.09
2017-11-18T02:35:58.046Z,23.03
2017-11-18T02:36:30.075Z,23.14
2017-11-18T02:37:02.199Z,23.12
2017-11-18T02:37:34.218Z,23.19
2017-11-18T02:38:06.245Z,23.19
2017-11-18T02:38:38.266Z,23.1
2017-11-18T02:39:10.311Z,23.16
2017-11-18T02:39:42.327Z,23.18
2017-11-18T02:40:14.391Z,23.21
2017-11-18T02:40:46.421Z,23.16
2017-11-18T02:41:18.468Z,23.18
2017-11-18T02:41:50.469Z,23.16
2017-11-18T02:42:23.160Z,23.07
2017-11-18T02:42:55.207Z,23.18
2017-11-18T02:43:27.910Z,23.16
2017-11-18T02:43:59.952Z,23.18
2017-11-18T02:44:31.971Z,23.18
2017-11-18T02:45:03.993Z,23.19
2017-11-18T02:45:36.031Z,23.15
2017-11-18T02:46:08.068Z,23.15
2017-11-18T02:46:40.089Z,23.18
2017-11-18T02:47:12.128Z,23.15
2017-11-18T02:47:44.147Z,23.22
2017-11-18T02:48:16.197Z,23.18
2017-11-18T02:48:48.354Z,23.19
2017-11-18T02:49:20.360Z,23.1
2017-11-18T02:49:52.350Z,23.29
2017-11-18T02:50:24.386Z,23.21
2017-11-18T02:50:56.426Z,23.21
2017-11-18T02:51:28.460Z,23.15
2017-11-18T02:52:00.507Z,23.18
2017-11-18T02:52:32.535Z,23.16
2017-11-18T02:53:04.647Z,23.22
2017-11-18T02:53:36.641Z,23.21
2017-11-18T02:54:08.695Z,23.22
2017-11-18T02:54:41.607Z,23.22
2017-11-18T02:55:13.626Z,23.18
2017-11-18T02:55:46.243Z,23.22
2017-11-18T02:56:18.273Z,23.24
2017-11-18T02:56:50.292Z,23.19
2017-11-18T02:57:22.299Z,23.18
2017-11-18T02:57:54.337Z,23.26
2017-11-18T02:58:26.341Z,23.24
2017-11-18T02:58:58.352Z,23.22
2017-11-18T02:59:30.443Z,23.22
2017-11-18T03:00:02.432Z,23.15
2017-11-18T03:00:34.481Z,23.19
2017-11-18T03:01:06.625Z,23.19
2017-11-18T03:01:38.625Z,23.25
2017-11-18T03:02:10.648Z,23.29
2017-11-18T03:02:42.676Z,23.26
2017-11-18T03:03:14.718Z,23.18
2017-11-18T03:03:46.727Z,23.24
2017-11-18T03:04:18.763Z,23.24
2017-11-18T03:04:50.775Z,23.15
2017-11-18T03:05:22.821Z,23.15
2017-11-18T03:05:54.850Z,23.19
2017-11-18T03:06:26.990Z,23.18
2017-11-18T03:06:59.040Z,23.18
2017-11-18T03:07:31.066Z,23.18
2017-11-18T03:08:03.081Z,23.24
2017-11-18T03:08:35.154Z,23.19
2017-11-18T03:09:07.149Z,23.22
2017-11-18T03:09:39.191Z,23.25
2017-11-18T03:10:11.215Z,23.24
2017-11-18T03:10:43.239Z,23.24
2017-11-18T03:11:15.266Z,23.22
2017-11-18T03:11:47.271Z,23.15
2017-11-18T03:12:19.429Z,23.22
2017-11-18T03:12:51.444Z,23.18
2017-11-18T03:13:23.475Z,23.21
2017-11-18T03:13:55.577Z,23.19
2017-11-18T03:14:27.605Z,23.15
2017-11-18T03:14:59.640Z,23.14
2017-11-18T03:15:31.699Z,23.15
2017-11-18T03:16:03.698Z,23.15
2017-11-18T03:16:35.700Z,23.09
2017-11-18T03:17:07.733Z,23.09
2017-11-18T03:17:39.714Z,23.14
2017-11-18T03:18:11.724Z,23.12
2017-11-18T03:18:43.776Z,23.16
2017-11-18T03:19:15.763Z,23.15
2017-11-18T03:19:47.802Z,23.18
2017-11-18T03:20:19.840Z,23.22
2017-11-18T03:20:51.846Z,23.22
2017-11-18T03:21:23.876Z,23.16
2017-11-18T03:21:56.740Z,23.18
2017-11-18T03:22:28.753Z,23.22
2017-11-18T03:23:00.806Z,23.19
2017-11-18T03:23:32.848Z,23.19
2017-11-18T03:24:04.831Z,23.14
2017-11-18T03:24:36.867Z,23.16
2017-11-18T03:25:08.898Z,23.18
2017-11-18T03:25:40.941Z,23.18
2017-11-18T03:26:12.952Z,23.12
2017-11-18T03:26:44.966Z,23.15
2017-11-18T03:27:17.004Z,23.18
2017-11-18T03:27:49.020Z,23.16
2017-11-18T03:28:21.055Z,23.15
2017-11-18T03:28:53.115Z,23.21
2017-11-18T03:29:25.138Z,23.21
2017-11-18T03:29:57.163Z,23.18
2017-11-18T03:30:29.165Z,23.21
2017-11-18T03:31:01.228Z,23.22
2017-11-18T03:31:33.275Z,23.21
2017-11-18T03:32:05.280Z,23.19
2017-11-18T03:32:37.281Z,23.14
2017-11-18T03:33:09.375Z,23.1
2017-11-18T03:33:41.399Z,23.04
2017-11-18T03:34:13.416Z,23.1
2017-11-18T03:34:45.422Z,23.18
2017-11-18T03:35:17.410Z,23.12
2017-11-18T03:35:49.425Z,23.12
2017-11-18T03:36:21.941Z,23.06
2017-11-18T03:36:53.984Z,23.15
2017-11-18T03:37:26.064Z,23.12
2017-11-18T03:37:58.094Z,23.15
2017-11-18T03:38:30.167Z,23.04
2017-11-18T03:39:02.166Z,23.09
2017-11-18T03:39:34.203Z,23.09
2017-11-18T03:40:06.225Z,23.04
2017-11-18T03:40:38.263Z,23.12
2017-11-18T03:41:10.263Z,23.15
2017-11-18T03:41:42.276Z,23.09
2017-11-18T03:42:14.309Z,23.12
2017-11-18T03:42:46.355Z,23.1
2017-11-18T03:43:18.384Z,23.1
2017-11-18T03:43:50.394Z,23.12
2017-11-18T03:44:22.424Z,23.09
2017-11-18T03:44:54.477Z,23.09
2017-11-18T03:45:26.504Z,23.06
2017-11-18T03:45:58.548Z,23.06
2017-11-18T03:46:30.637Z,23.03
2017-11-18T03:47:02.652Z,23.07
2017-11-18T03:47:34.671Z,23.04
2017-11-18T03:48:06.693Z,23.06
2017-11-18T03:48:38.748Z,23.1
2017-11-18T03:49:10.770Z,23.1
2017-11-18T03:49:42.809Z,23.06
2017-11-18T03:50:14.842Z,23.04
2017-11-18T03:50:47.580Z,23.16
2017-11-18T03:51:19.672Z,23.16
2017-11-18T03:51:51.722Z,23.06
2017-11-18T03:52:23.734Z,23.06
2017-11-18T03:52:55.755Z,23.03
2017-11-18T03:53:27.785Z,23.03
2017-11-18T03:53:59.882Z,23.09
2017-11-18T03:54:31.890Z,23.12
2017-11-18T03:55:03.922Z,23.06
2017-11-18T03:55:35.925Z,23.07
2017-11-18T03:56:07.999Z,23.04
2017-11-18T03:56:40.042Z,23.06
2017-11-18T03:57:12.053Z,23.03
2017-11-18T03:57:44.106Z,23.03
2017-11-18T03:58:16.134Z,22.96
2017-11-18T03:58:48.178Z,23.06
2017-11-18T03:59:20.208Z,23.03
2017-11-18T03:59:52.263Z,23
2017-11-18T04:00:24.261Z,22.96
2017-11-18T04:00:56.285Z,22.97
2017-11-18T04:01:28.358Z,23
2017-11-18T04:02:00.356Z,22.96
2017-11-18T04:02:32.376Z,22.96
2017-11-18T04:03:04.394Z,22.96
2017-11-18T04:03:36.435Z,22.92
2017-11-18T04:04:08.455Z,22.91
2017-11-18T04:04:40.519Z,22.92
2017-11-18T04:05:12.564Z,22.94
2017-11-18T04:05:44.572Z,22.88
2017-11-18T04:06:16.646Z,22.81
2017-11-18T04:06:48.657Z,22.79
2017-11-18T04:07:20.753Z,22.78
2017-11-18T04:07:52.772Z,22.85
2017-11-18T04:08:24.805Z,22.85
2017-11-18T04:08:56.798Z,22.79
2017-11-18T04:09:28.814Z,22.81
2017-11-18T04:10:00.841Z,22.82
2017-11-18T04:10:32.858Z,22.81
2017-11-18T04:11:04.867Z,22.78
2017-11-18T04:11:36.895Z,22.82
2017-11-18T04:12:08.904Z,22.84
2017-11-18T04:12:40.924Z,22.81
2017-11-18T04:13:12.941Z,22.7
2017-11-18T04:13:44.969Z,22.71
2017-11-18T04:14:16.987Z,22.7
2017-11-18T04:14:49.090Z,22.69
2017-11-18T04:15:21.228Z,22.67
2017-11-18T04:15:53.244Z,22.67
2017-11-18T04:16:25.268Z,22.69
2017-11-18T04:16:57.299Z,22.75
2017-11-18T04:17:29.426Z,22.67
2017-11-18T04:18:01.433Z,22.69
2017-11-18T04:18:33.450Z,22.64
2017-11-18T04:19:05.569Z,22.69
2017-11-18T04:19:37.606Z,22.61
2017-11-18T04:20:09.659Z,22.59
2017-11-18T04:20:41.692Z,22.6
2017-11-18T04:21:13.698Z,22.6
2017-11-18T04:21:45.692Z,22.59
2017-11-18T04:22:17.732Z,22.61
2017-11-18T04:22:49.852Z,22.66
2017-11-18T04:23:21.828Z,22.6
2017-11-18T04:23:53.877Z,22.64
2017-11-18T04:24:25.870Z,22.59
2017-11-18T04:24:57.908Z,22.61
2017-11-18T04:25:29.871Z,22.6
2017-11-18T04:26:01.881Z,22.54
2017-11-18T04:26:33.912Z,22.61
2017-11-18T04:27:05.942Z,22.57
2017-11-18T04:27:37.941Z,22.51
2017-11-18T04:28:09.933Z,22.45
2017-11-18T04:28:41.945Z,22.59
2017-11-18T04:29:13.988Z,22.52
2017-11-18T04:29:46.005Z,22.49
2017-11-18T04:30:18.030Z,22.51
2017-11-18T04:30:50.063Z,22.44
2017-11-18T04:31:22.082Z,22.51
2017-11-18T04:31:54.098Z,22.48
2017-11-18T04:32:26.132Z,22.48
2017-11-18T04:32:58.179Z,22.48
2017-11-18T04:33:30.804Z,22.49
2017-11-18T04:34:02.818Z,22.46
2017-11-18T04:34:34.835Z,22.45
2017-11-18T04:35:06.888Z,22.48
2017-11-18T04:35:38.913Z,22.52
2017-11-18T04:36:10.981Z,22.42
2017-11-18T04:36:43.000Z,22.45
2017-11-18T04:37:15.063Z,22.48
2017-11-18T04:37:47.142Z,22.45
2017-11-18T04:38:19.150Z,22.46
2017-11-18T04:38:51.197Z,22.41
2017-11-18T04:39:23.202Z,22.42
2017-11-18T04:39:55.250Z,22.46
2017-11-18T04:40:27.256Z,22.41
2017-11-18T04:40:59.296Z,22.42
2017-11-18T04:41:31.318Z,22.33
2017-11-18T04:42:03.336Z,22.48
2017-11-18T04:42:35.369Z,22.39
2017-11-18T04:43:07.396Z,22.45
2017-11-18T04:43:39.432Z,22.36
2017-11-18T04:44:11.477Z,22.38
2017-11-18T04:44:43.600Z,22.38
2017-11-18T04:45:15.637Z,22.33
2017-11-18T04:45:47.659Z,22.34
2017-11-18T04:46:19.671Z,22.39
2017-11-18T04:46:51.692Z,22.38
2017-11-18T04:47:23.710Z,22.36
2017-11-18T04:47:55.738Z,22.3
2017-11-18T04:48:27.777Z,22.34
2017-11-18T04:48:59.782Z,22.34
2017-11-18T04:49:31.799Z,22.31
2017-11-18T04:50:03.799Z,22.33
2017-11-18T04:50:35.817Z,22.34
2017-11-18T04:51:07.852Z,22.31
2017-11-18T04:51:39.869Z,22.34
2017-11-18T04:52:11.893Z,22.34
2017-11-18T04:52:44.079Z,22.34
2017-11-18T04:53:16.090Z,22.36
2017-11-18T04:53:48.090Z,22.31
2017-11-18T04:54:20.208Z,22.36
2017-11-18T04:54:52.250Z,22.22
2017-11-18T04:55:25.998Z,22.27
2017-11-18T04:55:58.013Z,22.26
2017-11-18T04:56:30.029Z,22.3
2017-11-18T04:57:02.021Z,22.27
2017-11-18T04:57:34.041Z,22.26
2017-11-18T04:58:06.076Z,22.34
2017-11-18T04:58:38.109Z,22.27
2017-11-18T04:59:10.800Z,22.18
2017-11-18T04:59:42.914Z,22.24
2017-11-18T05:00:14.956Z,22.24
2017-11-18T05:00:46.972Z,22.3
2017-11-18T05:01:19.005Z,22.29
2017-11-18T05:01:51.032Z,22.29
2017-11-18T05:02:23.080Z,22.3
2017-11-18T05:02:55.137Z,22.2
2017-11-18T05:03:27.212Z,22.2
2017-11-18T05:03:59.987Z,22.14
2017-11-18T05:04:32.079Z,22.09
2017-11-18T05:05:04.100Z,22.18
2017-11-18T05:05:36.132Z,22.07
2017-11-18T05:06:08.162Z,22.18
2017-11-18T05:06:40.225Z,22.15
2017-11-18T05:07:12.241Z,22.12
2017-11-18T05:07:44.253Z,22.2
2017-11-18T05:08:16.267Z,22.08
2017-11-18T05:08:48.320Z,22.12
2017-11-18T05:09:20.329Z,22.22
2017-11-18T05:09:52.357Z,22.12
2017-11-18T05:10:24.383Z,22.09
2017-11-18T05:10:56.400Z,22.2
2017-11-18T05:11:28.438Z,22.2
2017-11-18T05:12:00.440Z,22.08
2017-11-18T05:12:32.450Z,22.11
2017-11-18T05:13:04.521Z,22.15
2017-11-18T05:13:36.535Z,22.14
2017-11-18T05:14:08.549Z,22.16
2017-11-18T05:14:40.630Z,22.12
2017-11-18T05:15:12.660Z,22.11
2017-11-18T05:15:44.676Z,22.12
2017-11-18T05:16:16.705Z,22.08
2017-11-18T05:16:48.746Z,22.12
2017-11-18T05:17:20.805Z,22.11
2017-11-18T05:17:52.824Z,22.08
2017-11-18T05:18:25.632Z,22.14
2017-11-18T05:18:57.746Z,22.11
2017-11-18T05:19:29.757Z,22.08
2017-11-18T05:20:01.769Z,22.12
2017-11-18T05:20:33.794Z,22.11
2017-11-18T05:21:06.320Z,22.09
2017-11-18T05:21:38.346Z,22.09
2017-11-18T05:22:10.389Z,22.11
2017-11-18T05:22:42.480Z,22.12
2017-11-18T05:23:14.510Z,22.14
2017-11-18T05:23:46.511Z,22.12
2017-11-18T05:24:18.527Z,22.14
2017-11-18T05:24:50.597Z,22.02
2017-11-18T05:25:22.628Z,22
2017-11-18T05:25:54.652Z,22.07
2017-11-18T05:26:26.677Z,22.07
2017-11-18T05:26:58.712Z,22.09
2017-11-18T05:27:30.701Z,22.07
2017-11-18T05:28:02.851Z,22.05
2017-11-18T05:28:34.833Z,22.05
2017-11-18T05:29:06.844Z,22.04
2017-11-18T05:29:38.872Z,22.07
2017-11-18T05:30:10.951Z,22.07
2017-11-18T05:30:42.967Z,22.05
2017-11-18T05:31:14.976Z,22.04
2017-11-18T05:31:47.027Z,22.05
2017-11-18T05:32:19.027Z,22.05
2017-11-18T05:32:51.063Z,22.02
2017-11-18T05:33:23.110Z,22.07
2017-11-18T05:33:55.241Z,22.07
2017-11-18T05:34:27.246Z,22.08
2017-11-18T05:34:59.258Z,22.07
2017-11-18T05:35:31.275Z,22.02
2017-11-18T05:36:03.280Z,22.02
2017-11-18T05:36:35.310Z,21.96
2017-11-18T05:37:07.305Z,22.04
2017-11-18T05:37:39.328Z,22.02
2017-11-18T05:38:11.386Z,22.08
2017-11-18T05:38:43.414Z,21.97
2017-11-18T05:39:15.449Z,22.04
2017-11-18T05:39:47.444Z,21.97
2017-11-18T05:40:19.457Z,21.94
2017-11-18T05:40:51.473Z,22.02
2017-11-18T05:41:23.487Z,21.96
2017-11-18T05:41:55.525Z,22.02
2017-11-18T05:42:27.556Z,21.9
2017-11-18T05:42:59.564Z,22.07
2017-11-18T05:43:31.577Z,22.02
2017-11-18T05:44:03.584Z,21.99
2017-11-18T05:44:35.627Z,21.92
2017-11-18T05:45:08.631Z,22
2017-11-18T05:45:40.699Z,22.04
2017-11-18T05:46:12.701Z,22.02
2017-11-18T05:46:44.750Z,21.94
2017-11-18T05:47:16.750Z,21.96
2017-11-18T05:47:48.777Z,21.97
2017-11-18T05:48:20.777Z,21.94
2017-11-18T05:48:55.721Z,21.9
2017-11-18T05:49:27.788Z,21.97
2017-11-18T05:49:59.845Z,21.97
2017-11-18T05:50:31.886Z,21.92
2017-11-18T05:51:03.947Z,21.92
2017-11-18T05:51:36.002Z,21.9
2017-11-18T05:52:08.019Z,21.93
2017-11-18T05:52:40.040Z,21.94
2017-11-18T05:53:12.064Z,21.9
2017-11-18T05:53:44.073Z,21.94
2017-11-18T05:54:16.120Z,21.94
2017-11-18T05:54:48.140Z,21.93
2017-11-18T05:55:20.155Z,21.92
2017-11-18T05:55:52.176Z,21.86
2017-11-18T05:56:24.306Z,21.97
2017-11-18T05:56:56.329Z,21.89
2017-11-18T05:57:28.349Z,21.85
2017-11-18T05:58:00.386Z,21.92
2017-11-18T05:58:32.475Z,21.97
2017-11-18T05:59:04.499Z,21.94
2017-11-18T05:59:36.506Z,21.86
2017-11-18T06:00:08.566Z,21.86
2017-11-18T06:00:40.601Z,21.93
2017-11-18T06:01:12.627Z,21.92
2017-11-18T06:01:44.629Z,21.94
2017-11-18T06:02:16.662Z,21.9
2017-11-18T06:02:48.696Z,21.89
2017-11-18T06:03:20.729Z,21.93
2017-11-18T06:03:52.751Z,21.89
2017-11-18T06:04:24.756Z,21.86
2017-11-18T06:04:56.858Z,21.9
2017-11-18T06:05:28.878Z,21.85
2017-11-18T06:06:00.907Z,21.96
2017-11-18T06:06:32.924Z,21.83
2017-11-18T06:07:04.971Z,21.9
2017-11-18T06:07:36.991Z,21.92
2017-11-18T06:08:08.996Z,21.86
2017-11-18T06:08:41.032Z,21.76
2017-11-18T06:09:13.071Z,21.89
2017-11-18T06:09:45.083Z,21.83
2017-11-18T06:10:17.110Z,21.92
2017-11-18T06:10:49.168Z,21.89
2017-11-18T06:11:21.143Z,21.9
2017-11-18T06:11:53.171Z,21.8
2017-11-18T06:12:25.160Z,21.86
2017-11-18T06:12:57.167Z,21.86
2017-11-18T06:13:29.190Z,21.9
2017-11-18T06:14:01.298Z,21.89
2017-11-18T06:14:33.330Z,21.8
2017-11-18T06:15:05.423Z,21.86
2017-11-18T06:15:37.556Z,21.83
2017-11-18T06:16:09.569Z,21.83
2017-11-18T06:16:41.555Z,21.83
2017-11-18T06:17:13.573Z,21.76
2017-11-18T06:17:45.562Z,21.77
2017-11-18T06:18:17.656Z,21.8
2017-11-18T06:18:49.708Z,21.86
2017-11-18T06:19:21.754Z,21.9
2017-11-18T06:19:53.792Z,21.8
2017-11-18T06:20:25.837Z,21.78
2017-11-18T06:20:57.840Z,21.74
2017-11-18T06:21:29.936Z,21.83
2017-11-18T06:22:01.971Z,21.82
2017-11-18T06:22:33.969Z,21.74
2017-11-18T06:23:06.002Z,21.86
2017-11-18T06:23:38.009Z,21.8
2017-11-18T06:24:10.151Z,21.86
2017-11-18T06:24:42.171Z,21.85
2017-11-18T06:25:14.216Z,21.8
2017-11-18T06:25:47.126Z,21.78
2017-11-18T06:26:19.271Z,21.94
2017-11-18T06:26:51.379Z,21.94
2017-11-18T06:27:23.365Z,21.86
2017-11-18T06:27:55.397Z,21.9
2017-11-18T06:28:27.372Z,21.77
2017-11-18T06:28:59.418Z,21.76
2017-11-18T06:29:31.479Z,21.86
2017-11-18T06:30:03.505Z,21.82
2017-11-18T06:30:35.526Z,21.78
2017-11-18T06:31:07.542Z,21.76
2017-11-18T06:31:39.563Z,21.83
2017-11-18T06:32:11.571Z,21.77
2017-11-18T06:32:43.582Z,21.92
2017-11-18T06:33:15.553Z,21.82
2017-11-18T06:33:47.576Z,21.8
2017-11-18T06:34:19.601Z,21.83
2017-11-18T06:34:51.672Z,21.82
2017-11-18T06:35:23.667Z,21.89
2017-11-18T06:35:55.685Z,21.8
2017-11-18T06:36:27.714Z,21.83
2017-11-18T06:36:59.769Z,21.82
2017-11-18T06:37:31.808Z,21.86
2017-11-18T06:38:03.804Z,21.8
2017-11-18T06:38:35.808Z,21.8
2017-11-18T06:39:07.837Z,21.85
2017-11-18T06:39:39.854Z,21.82
2017-11-18T06:40:11.866Z,21.82
2017-11-18T06:40:43.875Z,21.78
2017-11-18T06:41:15.887Z,21.83
2017-11-18T06:41:47.936Z,21.8
2017-11-18T06:42:19.939Z,21.78
2017-11-18T06:42:51.977Z,21.78
2017-11-18T06:43:23.979Z,21.89
2017-11-18T06:43:56.104Z,21.76
2017-11-18T06:44:28.119Z,21.83
2017-11-18T06:45:00.147Z,21.83
2017-11-18T06:45:32.295Z,21.8
2017-11-18T06:46:04.343Z,21.83
2017-11-18T06:46:36.436Z,21.82
2017-11-18T06:47:08.445Z,21.76
2017-11-18T06:47:40.465Z,21.76
2017-11-18T06:48:12.499Z,21.83
2017-11-18T06:48:44.523Z,21.8
2017-11-18T06:49:16.538Z,21.82
2017-11-18T06:49:48.556Z,21.82
2017-11-18T06:50:20.562Z,21.78
2017-11-18T06:50:52.592Z,21.85
2017-11-18T06:51:24.572Z,21.76
2017-11-18T06:51:56.611Z,21.8
2017-11-18T06:52:28.651Z,21.83
2017-11-18T06:53:01.259Z,21.82
2017-11-18T06:53:33.339Z,21.83
2017-11-18T06:54:05.353Z,21.82
2017-11-18T06:54:37.392Z,21.8
2017-11-18T06:55:09.477Z,21.8